createdAt,value
2024-01-06T00:00:41.116Z,1.40
2024-01-06T00:03:08.359Z,1.40
2024-01-06T00:05:35.523Z,1.47
2024-01-06T00:08:02.600Z,1.37
2024-01-06T00:10:29.756Z,1.43
2024-01-06T00:12:58.869Z,1.60
2024-01-06T00:16:09.614Z,1.80
2024-01-06T00:18:36.891Z,2.17
2024-01-06T00:21:14.213Z,1.90
2024-01-06T00:23:44.295Z,1.90
2024-01-06T00:26:11.968Z,1.90
2024-01-06T00:28:40.463Z,2.10
2024-01-06T00:31:08.530Z,1.80
2024-01-06T00:33:35.915Z,1.97
2024-01-06T00:36:03.162Z,1.50
2024-01-06T00:38:30.272Z,1.80
2024-01-06T00:40:57.281Z,1.70
2024-01-06T00:43:24.345Z,1.93
2024-01-06T00:45:51.428Z,2.10
2024-01-06T00:48:18.713Z,2.20
2024-01-06T00:50:45.768Z,1.80
2024-01-06T00:53:13.767Z,1.87
2024-01-06T00:55:40.764Z,1.90
2024-01-06T00:58:07.823Z,2.23
2024-01-06T01:00:35.115Z,2.07
2024-01-06T01:03:02.213Z,1.83
2024-01-06T01:05:29.579Z,1.67
2024-01-06T01:07:56.636Z,2.83
2024-01-06T01:10:23.696Z,2.00
2024-01-06T01:12:50.841Z,1.70
2024-01-06T01:15:18.008Z,1.47
2024-01-06T01:17:45.444Z,1.90
2024-01-06T01:20:12.743Z,1.77
2024-01-06T01:22:39.819Z,1.87
2024-01-06T01:25:09.285Z,1.77
2024-01-06T01:27:36.486Z,1.70
2024-01-06T01:30:04.558Z,1.30
2024-01-06T01:32:31.861Z,1.53
2024-01-06T01:34:59.101Z,1.83
2024-01-06T01:37:26.196Z,1.23
2024-01-06T01:39:53.290Z,1.57
2024-01-06T01:42:20.402Z,1.30
2024-01-06T01:44:47.440Z,1.73
2024-01-06T01:47:19.498Z,1.30
2024-01-06T01:49:48.327Z,1.30
2024-01-06T01:52:16.369Z,1.57
2024-01-06T01:54:44.863Z,1.70
2024-01-06T01:58:14.467Z,1.47
2024-01-06T02:00:41.766Z,1.30
2024-01-06T02:03:27.530Z,1.43
2024-01-06T02:05:55.107Z,1.80
2024-01-06T02:08:22.333Z,1.30
2024-01-06T02:10:49.629Z,1.80
2024-01-06T02:13:16.743Z,1.50
2024-01-06T02:15:43.878Z,1.53
2024-01-06T02:18:11.318Z,1.70
2024-01-06T02:20:38.664Z,2.20
2024-01-06T02:23:05.934Z,1.90
2024-01-06T02:25:34.446Z,1.87
2024-01-06T02:28:01.497Z,1.77
2024-01-06T02:30:28.730Z,1.87
2024-01-06T02:32:56.002Z,2.30
2024-01-06T02:35:23.117Z,2.00
2024-01-06T02:37:50.167Z,1.97
2024-01-06T02:40:17.402Z,2.30
2024-01-06T02:42:44.448Z,1.47
2024-01-06T02:45:11.578Z,1.70
2024-01-06T02:47:38.758Z,2.20
2024-01-06T02:50:07.058Z,1.50
2024-01-06T02:52:34.236Z,1.70
2024-01-06T02:55:02.308Z,2.07
2024-01-06T02:57:32.678Z,1.70
2024-01-06T02:59:59.789Z,1.70
2024-01-06T03:02:27.008Z,1.90
2024-01-06T03:04:56.063Z,1.70
2024-01-06T03:07:23.282Z,1.60
2024-01-06T03:09:50.376Z,1.90
2024-01-06T03:12:17.877Z,1.83
2024-01-06T03:14:44.930Z,2.10
2024-01-06T03:17:11.958Z,2.00
2024-01-06T03:19:40.215Z,1.77
2024-01-06T03:22:07.422Z,2.00
2024-01-06T03:24:34.665Z,2.10
2024-01-06T03:27:01.768Z,1.90
2024-01-06T03:29:29.560Z,2.37
2024-01-06T03:31:56.666Z,1.80
2024-01-06T03:34:23.858Z,2.17
2024-01-06T03:36:51.121Z,1.80
2024-01-06T03:43:17.644Z,1.73
2024-01-06T03:45:59.070Z,1.80
2024-01-06T03:48:28.385Z,1.63
2024-01-06T03:50:55.642Z,1.73
2024-01-06T03:53:25.322Z,1.80
2024-01-06T03:55:53.955Z,1.60
2024-01-06T03:58:21.096Z,2.00
2024-01-06T04:00:48.307Z,1.87
2024-01-06T04:03:15.592Z,1.70
2024-01-06T04:05:43.837Z,1.50
2024-01-06T04:08:10.938Z,2.20
2024-01-06T04:10:38.047Z,1.70
2024-01-06T04:13:05.722Z,1.47
2024-01-06T04:15:32.843Z,1.70
2024-01-06T04:18:04.808Z,1.70
2024-01-06T04:20:33.253Z,1.60
2024-01-06T04:23:00.530Z,1.53
2024-01-06T04:25:27.619Z,1.70
2024-01-06T04:27:54.889Z,1.50
2024-01-06T04:30:22.287Z,1.93
2024-01-06T04:32:49.745Z,1.53
2024-01-06T04:35:17.350Z,1.57
2024-01-06T04:37:44.433Z,1.77
2024-01-06T04:40:12.626Z,1.40
2024-01-06T04:42:40.092Z,1.40
2024-01-06T04:45:08.154Z,1.60
2024-01-06T04:47:35.428Z,1.60
2024-01-06T04:50:02.641Z,1.20
2024-01-06T04:52:31.854Z,2.07
2024-01-06T04:54:59.114Z,1.50
2024-01-06T04:57:26.308Z,1.40
2024-01-06T04:59:53.360Z,1.40
2024-01-06T05:02:20.681Z,1.70
2024-01-06T05:04:47.808Z,2.07
2024-01-06T05:07:15.028Z,1.90
2024-01-06T05:09:42.148Z,1.83
2024-01-06T05:12:09.650Z,1.87
2024-01-06T05:14:36.781Z,1.67
2024-01-06T05:17:03.943Z,1.80
2024-01-06T05:19:31.219Z,2.20
2024-01-06T05:22:02.276Z,2.40
2024-01-06T05:24:33.734Z,2.73
2024-01-06T05:27:01.940Z,2.20
2024-01-06T05:29:50.824Z,2.07
2024-01-06T05:32:18.867Z,1.70
2024-01-06T05:34:46.759Z,1.73
2024-01-06T05:37:14.091Z,1.93
2024-01-06T05:39:41.466Z,1.93
2024-01-06T05:42:14.030Z,1.60
2024-01-06T05:44:41.221Z,1.97
2024-01-06T05:47:09.645Z,2.17
2024-01-06T05:49:36.950Z,2.07
2024-01-06T05:52:04.273Z,2.60
2024-01-06T05:54:31.785Z,2.37
2024-01-06T05:56:59.062Z,2.10
2024-01-06T05:59:27.089Z,2.60
2024-01-06T06:01:54.139Z,2.60
2024-01-06T06:04:21.376Z,2.70
2024-01-06T06:06:48.560Z,2.67
2024-01-06T06:09:16.881Z,2.70
2024-01-06T06:11:44.276Z,2.50
2024-01-06T06:14:11.406Z,2.50
2024-01-06T06:16:38.482Z,2.17
2024-01-06T06:19:05.904Z,2.23
2024-01-06T06:21:33.251Z,2.03
2024-01-06T06:24:00.412Z,2.20
2024-01-06T06:26:29.534Z,2.53
2024-01-06T06:28:56.651Z,2.00
2024-01-06T06:31:23.774Z,2.10
2024-01-06T06:33:51.250Z,2.30
2024-01-06T06:36:18.374Z,1.90
2024-01-06T06:38:45.500Z,2.40
2024-01-06T06:41:12.615Z,2.30
2024-01-06T06:43:39.759Z,2.90
2024-01-06T06:46:06.954Z,2.80
2024-01-06T06:48:36.826Z,3.30
2024-01-06T06:51:04.542Z,3.17
2024-01-06T06:53:31.637Z,3.07
2024-01-06T06:55:58.719Z,2.90
2024-01-06T06:58:25.782Z,3.17
2024-01-06T07:00:54.179Z,3.37
2024-01-06T07:03:22.214Z,3.30
2024-01-06T07:05:50.457Z,3.57
2024-01-06T07:09:08.612Z,4.20
2024-01-06T07:11:35.657Z,3.23
2024-01-06T07:14:05.565Z,3.63
2024-01-06T07:16:32.626Z,3.87
2024-01-06T07:18:59.911Z,3.33
2024-01-06T07:21:26.990Z,3.60
2024-01-06T07:23:54.131Z,3.70
2024-01-06T07:26:21.183Z,4.70
2024-01-06T07:28:48.285Z,4.43
2024-01-06T07:31:16.201Z,5.00
2024-01-06T07:33:43.318Z,5.57
2024-01-06T07:36:10.433Z,6.43
2024-01-06T07:38:37.842Z,5.90
2024-01-06T07:41:07.546Z,4.83
2024-01-06T07:43:34.643Z,5.27
2024-01-06T07:46:01.885Z,5.90
2024-01-06T07:48:29.242Z,6.17
2024-01-06T07:50:56.249Z,6.53
2024-01-06T07:53:23.344Z,5.83
2024-01-06T07:55:50.472Z,6.73
2024-01-06T07:58:18.457Z,6.17
2024-01-06T08:00:46.581Z,6.60
2024-01-06T08:03:13.699Z,6.53
2024-01-06T08:05:41.028Z,7.13
2024-01-06T08:08:08.276Z,7.13
2024-01-06T08:10:35.346Z,6.73
2024-01-06T08:13:03.746Z,6.90
2024-01-06T08:15:31.109Z,7.40
2024-01-06T08:17:58.249Z,7.13
2024-01-06T08:20:25.473Z,8.10
2024-01-06T08:22:52.730Z,7.17
2024-01-06T08:25:19.817Z,7.67
2024-01-06T08:27:49.055Z,7.10
2024-01-06T08:30:16.376Z,8.13
2024-01-06T08:32:43.820Z,7.87
2024-01-06T08:35:11.269Z,7.90
2024-01-06T08:37:38.249Z,8.30
2024-01-06T08:40:07.023Z,7.83
2024-01-06T08:42:34.264Z,7.87
2024-01-06T08:45:01.807Z,7.43
2024-01-06T08:47:28.874Z,7.50
2024-01-06T08:50:44.398Z,8.07
2024-01-06T08:54:14.945Z,7.27
2024-01-06T08:56:51.048Z,7.30
2024-01-06T08:59:18.347Z,6.93
2024-01-06T09:01:47.902Z,7.73
2024-01-06T09:04:16.707Z,6.63
2024-01-06T09:06:43.857Z,7.07
2024-01-06T09:09:12.049Z,7.23
2024-01-06T09:11:41.896Z,7.33
2024-01-06T09:14:08.979Z,8.07
2024-01-06T09:16:36.043Z,8.03
2024-01-06T09:19:03.228Z,7.30
2024-01-06T09:21:30.339Z,7.30
2024-01-06T09:23:57.394Z,7.30
2024-01-06T09:26:24.438Z,6.10
2024-01-06T09:28:51.542Z,5.90
2024-01-06T09:31:18.632Z,6.37
2024-01-06T09:33:45.849Z,5.40
2024-01-06T09:36:15.220Z,5.40
2024-01-06T09:38:42.454Z,4.83
2024-01-06T09:41:09.682Z,4.57
2024-01-06T09:43:37.523Z,5.23
2024-01-06T09:46:33.174Z,4.93
2024-01-06T09:49:01.266Z,5.47
2024-01-06T09:51:28.693Z,5.43
2024-01-06T09:54:08.693Z,5.13
2024-01-06T09:56:36.353Z,5.27
2024-01-06T09:59:03.466Z,4.90
2024-01-06T10:01:30.803Z,4.73
2024-01-06T10:03:58.082Z,5.00
2024-01-06T10:06:25.331Z,4.60
2024-01-06T10:08:54.466Z,5.07
2024-01-06T10:11:23.817Z,5.00
2024-01-06T10:13:52.397Z,4.97
2024-01-06T10:16:20.672Z,5.20
2024-01-06T10:18:52.521Z,4.60
2024-01-06T10:21:23.962Z,5.37
2024-01-06T10:23:52.344Z,4.60
2024-01-06T10:26:20.512Z,5.10
2024-01-06T10:28:51.269Z,4.57
2024-01-06T10:31:20.595Z,4.73
2024-01-06T10:34:30.330Z,4.63
2024-01-06T10:37:30.429Z,4.20
2024-01-06T10:40:11.255Z,4.43
2024-01-06T10:42:40.943Z,4.97
2024-01-06T10:45:11.086Z,4.93
2024-01-06T10:47:39.764Z,4.27
2024-01-06T10:50:09.339Z,4.63
2024-01-06T10:52:38.911Z,4.63
2024-01-06T10:55:07.427Z,4.73
2024-01-06T10:57:35.812Z,4.73
2024-01-06T11:00:03.376Z,4.00
2024-01-06T11:02:32.963Z,3.60
2024-01-06T11:05:00.263Z,3.47
2024-01-06T11:07:28.535Z,3.80
2024-01-06T11:10:20.182Z,3.70
2024-01-06T11:13:08.983Z,3.60
2024-01-06T11:15:50.969Z,3.67
2024-01-06T11:18:39.411Z,3.57
2024-01-06T11:21:15.766Z,3.63
2024-01-06T11:23:42.864Z,4.37
2024-01-06T11:26:10.716Z,5.07
2024-01-06T11:28:48.284Z,5.77
2024-01-06T11:31:15.895Z,6.93
2024-01-06T11:33:50.324Z,5.40
2024-01-06T11:36:18.283Z,4.30
2024-01-06T11:38:51.650Z,4.23
2024-01-06T11:41:52.324Z,4.77
2024-01-06T11:44:23.934Z,3.90
2024-01-06T11:46:52.119Z,3.90
2024-01-06T11:49:22.344Z,4.40
2024-01-06T11:51:50.777Z,4.13
2024-01-06T11:54:18.213Z,4.27
2024-01-06T11:56:45.736Z,4.47
2024-01-06T11:59:13.516Z,4.10
2024-01-06T12:01:41.968Z,4.47
2024-01-06T12:04:09.252Z,3.63
2024-01-06T12:06:42.487Z,3.50
2024-01-06T12:09:15.527Z,3.33
2024-01-06T12:11:46.321Z,3.83
2024-01-06T12:14:14.685Z,3.40
2024-01-06T12:17:21.414Z,3.67
2024-01-06T12:20:44.111Z,3.47
2024-01-06T12:23:11.299Z,3.70
2024-01-06T12:25:41.087Z,3.20
2024-01-06T12:28:09.052Z,3.40
2024-01-06T12:30:37.269Z,3.30
2024-01-06T12:33:06.039Z,3.70
2024-01-06T12:35:36.023Z,3.63
2024-01-06T12:38:08.606Z,3.50
2024-01-06T12:40:42.656Z,3.90
2024-01-06T12:43:10.365Z,3.97
2024-01-06T12:45:37.729Z,3.70
2024-01-06T12:48:05.357Z,3.60
2024-01-06T12:50:32.581Z,3.17
2024-01-06T12:52:59.621Z,3.07
2024-01-06T12:55:26.911Z,2.80
2024-01-06T12:57:54.153Z,3.10
2024-01-06T13:00:21.603Z,5.30
2024-01-06T13:02:48.804Z,6.30
2024-01-06T13:05:16.942Z,4.73
2024-01-06T13:07:44.192Z,3.40
2024-01-06T13:10:11.534Z,2.73
2024-01-06T13:12:39.561Z,2.87
2024-01-06T13:15:12.366Z,2.87
2024-01-06T13:17:39.771Z,2.50
2024-01-06T13:20:09.286Z,2.73
2024-01-06T13:22:36.472Z,2.20
2024-01-06T13:25:04.198Z,2.47
2024-01-06T13:27:31.237Z,2.83
2024-01-06T13:29:58.366Z,2.30
2024-01-06T13:32:25.450Z,2.67
2024-01-06T13:34:55.493Z,2.70
2024-01-06T13:37:25.400Z,2.60
2024-01-06T13:39:52.702Z,2.20
2024-01-06T13:42:22.714Z,2.40
2024-01-06T13:44:50.374Z,2.23
2024-01-06T13:47:18.354Z,2.90
2024-01-06T13:49:45.631Z,2.80
2024-01-06T13:52:15.866Z,2.80
2024-01-06T13:54:43.348Z,2.60
2024-01-06T13:57:11.753Z,2.70
2024-01-06T13:59:43.524Z,2.37
2024-01-06T14:02:55.763Z,2.60
2024-01-06T14:05:29.795Z,2.23
2024-01-06T14:07:56.931Z,2.07
2024-01-06T14:10:24.098Z,1.93
2024-01-06T14:12:51.225Z,2.30
2024-01-06T14:15:18.512Z,2.97
2024-01-06T14:17:50.856Z,2.60
2024-01-06T14:20:19.626Z,2.40
2024-01-06T14:22:47.973Z,2.50
2024-01-06T14:25:16.648Z,2.47
2024-01-06T14:27:44.443Z,2.60
2024-01-06T14:30:12.172Z,2.23
2024-01-06T14:32:39.789Z,2.00
2024-01-06T14:35:07.768Z,2.20
2024-01-06T14:37:35.040Z,1.90
2024-01-06T14:40:06.622Z,1.70
2024-01-06T14:42:33.979Z,2.03
2024-01-06T14:45:01.228Z,1.93
2024-01-06T14:47:28.360Z,2.70
2024-01-06T14:49:55.653Z,2.70
2024-01-06T14:52:22.944Z,2.60
2024-01-06T14:54:50.605Z,2.70
2024-01-06T14:57:17.778Z,2.20
2024-01-06T14:59:44.855Z,2.93
2024-01-06T15:02:11.972Z,2.60
2024-01-06T15:04:40.163Z,2.60
2024-01-06T15:07:07.350Z,2.90
2024-01-06T15:09:34.560Z,2.30
2024-01-06T15:12:01.704Z,4.07
2024-01-06T15:14:28.723Z,3.87
2024-01-06T15:16:55.840Z,2.20
2024-01-06T15:19:25.045Z,3.20
2024-01-06T15:21:52.229Z,4.33
2024-01-06T15:24:19.412Z,2.87
2024-01-06T15:26:46.462Z,2.20
2024-01-06T15:29:13.964Z,1.73
2024-01-06T15:31:41.128Z,1.67
2024-01-06T15:34:08.481Z,1.97
2024-01-06T15:36:36.908Z,1.80
2024-01-06T15:39:04.079Z,1.97
2024-01-06T15:41:31.463Z,1.77
2024-01-06T15:43:59.569Z,1.90
2024-01-06T15:46:44.280Z,2.33
2024-01-06T15:49:21.183Z,2.53
2024-01-06T15:51:48.390Z,2.77
2024-01-06T15:54:15.578Z,2.70
2024-01-06T15:56:42.609Z,2.37
2024-01-06T15:59:09.731Z,2.30
2024-01-06T16:01:36.909Z,2.40
2024-01-06T16:04:04.292Z,4.30
2024-01-06T16:06:34.556Z,2.23
2024-01-06T16:09:03.460Z,3.97
2024-01-06T16:11:30.520Z,3.77
2024-01-06T16:13:57.540Z,4.17
2024-01-06T16:16:29.608Z,4.60
2024-01-06T16:18:56.907Z,3.20
2024-01-06T16:21:25.612Z,2.83
2024-01-06T16:23:53.120Z,2.53
2024-01-06T16:26:20.407Z,2.97
2024-01-06T16:28:47.621Z,3.33
2024-01-06T16:31:14.770Z,4.27
2024-01-06T16:33:42.073Z,3.07
2024-01-06T16:36:11.584Z,2.90
2024-01-06T16:38:38.980Z,3.53
2024-01-06T16:41:06.286Z,6.20
2024-01-06T16:43:39.756Z,3.57
2024-01-06T16:46:07.528Z,8.20
2024-01-06T16:48:35.072Z,3.70
2024-01-06T16:51:02.300Z,3.50
2024-01-06T16:53:29.647Z,3.83
2024-01-06T16:55:58.109Z,3.20
2024-01-06T16:58:25.281Z,4.00
2024-01-06T17:00:53.457Z,3.00
2024-01-06T17:03:22.011Z,3.57
2024-01-06T17:05:49.229Z,4.93
2024-01-06T17:08:16.316Z,3.30
2024-01-06T17:10:43.478Z,3.87
2024-01-06T17:13:10.674Z,4.20
2024-01-06T17:15:38.348Z,3.30
2024-01-06T17:18:07.886Z,2.47
2024-01-06T17:20:39.363Z,1.70
2024-01-06T17:23:06.868Z,2.33
2024-01-06T17:25:35.258Z,2.03
2024-01-06T17:28:43.515Z,2.10
2024-01-06T17:35:10.674Z,1.90
2024-01-06T17:37:38.001Z,2.40
2024-01-06T17:40:06.547Z,2.57
2024-01-06T17:42:35.023Z,2.90
2024-01-06T17:45:04.512Z,3.40
2024-01-06T17:47:33.079Z,3.30
2024-01-06T17:50:00.395Z,4.00
2024-01-06T17:52:28.619Z,4.20
2024-01-06T17:54:56.744Z,4.00
2024-01-06T17:57:23.875Z,3.87
2024-01-06T17:59:53.640Z,4.53
2024-01-06T18:02:20.737Z,5.07
2024-01-06T18:04:48.308Z,4.43
2024-01-06T18:07:15.588Z,4.33
2024-01-06T18:09:42.826Z,6.23
2024-01-06T18:12:10.694Z,4.10
2024-01-06T18:14:39.148Z,4.37
2024-01-06T18:17:07.630Z,3.80
2024-01-06T18:19:34.822Z,3.80
2024-01-06T18:22:02.032Z,3.77
2024-01-06T18:24:31.875Z,3.60
2024-01-06T18:27:00.064Z,3.47
2024-01-06T18:29:27.194Z,3.27
2024-01-06T18:31:54.339Z,3.30
2024-01-06T18:34:21.666Z,3.70
2024-01-06T18:36:49.029Z,3.17
2024-01-06T18:39:16.238Z,3.70
2024-01-06T18:41:43.364Z,3.90
2024-01-06T18:44:11.597Z,3.80
2024-01-06T18:46:39.481Z,4.30
2024-01-06T18:49:07.850Z,4.00
2024-01-06T18:51:38.506Z,4.20
2024-01-06T18:54:12.546Z,4.80
2024-01-06T18:56:43.523Z,4.60
2024-01-06T18:59:10.656Z,4.53
2024-01-06T19:01:37.808Z,4.20
2024-01-06T19:04:05.217Z,4.67
2024-01-06T19:06:32.844Z,4.30
2024-01-06T19:09:00.000Z,4.70
2024-01-06T19:11:38.773Z,5.03
2024-01-06T19:15:09.169Z,5.10
2024-01-06T19:17:38.670Z,6.50
2024-01-06T19:20:07.188Z,4.67
2024-01-06T19:22:34.431Z,5.03
2024-01-06T19:25:01.497Z,5.03
2024-01-06T19:27:28.751Z,5.43
2024-01-06T19:29:55.896Z,5.70
2024-01-06T19:32:23.075Z,5.70
2024-01-06T19:34:55.178Z,5.30
2024-01-06T19:37:22.613Z,5.47
2024-01-06T19:39:49.762Z,4.87
2024-01-06T19:42:17.350Z,4.90
2024-01-06T19:44:45.264Z,4.93
2024-01-06T19:47:13.628Z,4.80
2024-01-06T19:49:40.802Z,5.27
2024-01-06T19:52:08.063Z,4.87
2024-01-06T19:54:37.674Z,6.33
2024-01-06T19:57:05.929Z,5.53
2024-01-06T19:59:33.034Z,5.10
2024-01-06T20:02:00.274Z,5.97
2024-01-06T20:04:28.019Z,5.63
2024-01-06T20:06:55.511Z,5.30
2024-01-06T20:09:22.726Z,5.63
2024-01-06T20:11:49.784Z,6.47
2024-01-06T20:14:16.987Z,5.33
2024-01-06T20:16:44.238Z,5.70
2024-01-06T20:19:12.405Z,5.60
2024-01-06T20:21:39.491Z,5.67
2024-01-06T20:24:06.923Z,7.07
2024-01-06T20:26:33.973Z,6.13
2024-01-06T20:29:01.109Z,6.00
2024-01-06T20:31:28.306Z,6.20
2024-01-06T20:33:55.899Z,6.50
2024-01-06T20:36:23.149Z,5.63
2024-01-06T20:38:52.972Z,5.30
2024-01-06T20:41:20.161Z,5.90
2024-01-06T20:43:47.381Z,6.63
2024-01-06T20:46:20.838Z,5.27
2024-01-06T20:48:48.618Z,6.20
2024-01-06T20:51:19.617Z,6.03
2024-01-06T20:53:52.746Z,6.23
2024-01-06T20:57:00.656Z,5.07
2024-01-06T20:59:50.052Z,5.10
2024-01-06T21:02:18.729Z,5.03
2024-01-06T21:04:45.977Z,5.53
2024-01-06T21:07:13.175Z,5.87
2024-01-06T21:09:41.899Z,5.17
2024-01-06T21:12:09.286Z,5.20
2024-01-06T21:14:38.042Z,4.47
2024-01-06T21:17:05.469Z,4.70
2024-01-06T21:19:33.470Z,4.50
2024-01-06T21:22:00.930Z,4.30
2024-01-06T21:24:29.218Z,4.27
2024-01-06T21:26:56.508Z,4.10
2024-01-06T21:29:24.031Z,4.50
2024-01-06T21:31:51.292Z,4.27
2024-01-06T21:34:21.638Z,4.20
2024-01-06T21:36:51.082Z,3.90
2024-01-06T21:39:18.164Z,4.03
2024-01-06T21:41:46.787Z,3.87
2024-01-06T21:44:13.975Z,4.47
2024-01-06T21:46:41.362Z,5.33
2024-01-06T21:49:08.513Z,4.37
2024-01-06T21:51:51.384Z,5.03
2024-01-06T21:54:19.201Z,5.47
2024-01-06T21:56:49.514Z,4.53
2024-01-06T21:59:16.725Z,4.63
2024-01-06T22:01:45.116Z,4.10
2024-01-06T22:04:13.596Z,4.97
2024-01-06T22:06:40.880Z,5.03
2024-01-06T22:09:11.515Z,4.63
2024-01-06T22:11:42.210Z,5.00
2024-01-06T22:14:09.335Z,4.87
2024-01-06T22:16:36.538Z,5.80
2024-01-06T22:19:05.322Z,5.87
2024-01-06T22:21:33.306Z,4.80
2024-01-06T22:24:00.635Z,6.03
2024-01-06T22:26:30.120Z,6.03
2024-01-06T22:28:57.331Z,5.83
2024-01-06T22:31:24.524Z,5.73
2024-01-06T22:33:51.785Z,5.30
2024-01-06T22:36:18.957Z,5.40
2024-01-06T22:39:54.992Z,5.33
2024-01-06T22:43:01.145Z,4.93
2024-01-06T22:45:42.073Z,5.23
2024-01-06T22:48:09.407Z,5.00
2024-01-06T22:50:36.586Z,5.37
2024-01-06T22:53:05.600Z,5.37
2024-01-06T22:55:32.749Z,4.97
2024-01-06T22:58:00.018Z,5.00
2024-01-06T23:00:29.275Z,4.70
2024-01-06T23:02:57.888Z,4.60
2024-01-06T23:05:24.971Z,4.60
2024-01-06T23:07:52.143Z,4.30
2024-01-06T23:10:19.816Z,5.33
2024-01-06T23:12:49.002Z,4.57
2024-01-06T23:15:17.360Z,4.83
2024-01-06T23:17:44.855Z,4.60
2024-01-06T23:20:13.781Z,5.20
2024-01-06T23:22:41.985Z,4.90
2024-01-06T23:25:09.434Z,4.73
2024-01-06T23:27:36.639Z,4.43
2024-01-06T23:30:05.486Z,4.40
2024-01-06T23:32:32.748Z,4.40
2024-01-06T23:34:59.881Z,4.93
2024-01-06T23:37:27.082Z,4.40
2024-01-06T23:39:54.279Z,4.20
2024-01-06T23:42:23.276Z,4.77
2024-01-06T23:44:53.984Z,4.53
2024-01-06T23:47:21.203Z,5.07
2024-01-06T23:49:48.393Z,4.83
2024-01-06T23:52:15.462Z,5.20
2024-01-06T23:54:43.000Z,5.23
2024-01-06T23:57:10.107Z,5.40
2024-01-06T23:59:41.293Z,5.10
